Knossos Palace — SYQO — position and weather

sailwx.info

Track history (hours):
 
Tides and Currents Weather Stations Pressure Air Temp Water Temp Dewpoint Dewpoint Depression Visibility Wind Speed Wind Dir Waves Ship Positions

Knossos Palace

Last reported at 2015-Aug-02 02:31 UTC. Time now 2015-Aug-02 06:24 UTC.
Position N 35°36' E 024°59'.

Length 214 m; beam 26.4 m; draft 7.3 m.

Type: Ship. MMSI: 237641000.

Date/timePositionNaut miles runAvg speedWind from/ knotsBaromVisibWave heightAir tempDewpointWater temp
2015-Aug-02 02:31N 35°36' E 024°59'2021.4
2015-Aug-02 01:33N 35°54' E 024°46'2221.6
2015-Aug-02 00:33N 36°13' E 024°33'8921.1
2015-Aug-01 20:21N 37°33' E 023°46'1621.0
2015-Aug-01 19:34N 37°48' E 023°38'8 8.1
2015-Aug-01 18:33N 37°57' E 023°38'0 0.0
2015-Aug-01 17:33N 37°57' E 023°38'0 0.0
2015-Aug-01 16:33N 37°57' E 023°38'0 0.2
2015-Aug-01 15:33N 37°56' E 023°38'1817.6
2015-Aug-01 14:34N 37°40' E 023°46'8124.3
2015-Aug-01 11:14N 36°25' E 024°24'1724.5
2015-Aug-01 10:33N 36°10' E 024°34'2424.3
2015-Aug-01 09:33N 35°50' E 024°49'2424.1
2015-Aug-01 08:33N 35°29' E 025°05'9 2.1
2015-Aug-01 04:21N 35°21' E 025°09'0 0.1
2015-Aug-01 03:33N 35°21' E 025°09'1717.6
2015-Aug-01 02:33N 35°36' E 024°59'2121.1
2015-Aug-01 01:33N 35°55' E 024°46'2221.4
2015-Aug-01 00:33N 36°13' E 024°32'6521.1
2015-Jul-31 21:27N 37°12' E 023°56'2220.9
2015-Jul-31 20:24N 37°32' E 023°46'1821.1
2015-Jul-31 19:34N 37°48' E 023°37'8 8.4
2015-Jul-31 18:34N 37°57' E 023°38'0 0.0
2015-Jul-31 17:34N 37°57' E 023°38'0 0.0
2015-Jul-31 16:34N 37°57' E 023°38'0 0.1
2015-Jul-31 15:33N 37°57' E 023°38'1818.4
2015-Jul-31 14:33N 37°39' E 023°46'2524.6
2015-Jul-31 13:34N 37°16' E 023°57'2424.5
2015-Jul-31 12:34N 36°53' E 024°08'2924.2
2015-Jul-31 11:21N 36°27' E 024°23'1924.1
2015-Jul-31 10:33N 36°10' E 024°34'2823.8
2015-Jul-31 09:23N 35°46' E 024°52'2024.1
2015-Jul-31 08:33N 35°29' E 025°04'9 8.9
2015-Jul-31 07:33N 35°21' E 025°09'0 0.0
2015-Jul-31 06:32N 35°21' E 025°09'0 0.0
2015-Jul-31 05:32N 35°21' E 025°09'0 0.0
2015-Jul-31 04:29N 35°21' E 025°09'0 0.2
2015-Jul-31 03:32N 35°21' E 025°09'1717.6
2015-Jul-31 02:33N 35°36' E 024°59'2221.4
2015-Jul-31 01:33N 35°55' E 024°46'2121.3
2015-Jul-31 00:33N 36°13' E 024°33'2121.0
2015-Jul-30 23:33N 36°31' E 024°19'4221.1
2015-Jul-30 21:33N 37°09' E 023°57'2120.8
2015-Jul-30 20:33N 37°29' E 023°48'2120.9
2015-Jul-30 19:34N 37°48' E 023°38'8 8.5
2015-Jul-30 18:33N 37°57' E 023°38'0 0.0
2015-Jul-30 17:33N 37°57' E 023°38'0 0.0
2015-Jul-30 16:33N 37°57' E 023°38'0 0.0
2015-Jul-30 15:33N 37°57' E 023°38'0 0.0
2015-Jul-30 14:33N 37°57' E 023°38'0 0.0
2015-Jul-30 13:33N 37°57' E 023°38'0 0.0
2015-Jul-30 12:33N 37°57' E 023°38'0 0.0
2015-Jul-30 11:33N 37°57' E 023°38'0 0.0
2015-Jul-30 10:33N 37°57' E 023°38'0 0.0
2015-Jul-30 09:33N 37°57' E 023°38'0 0.0
2015-Jul-30 08:30N 37°57' E 023°38'0 0.0
2015-Jul-30 07:33N 37°57' E 023°38'0 0.0
2015-Jul-30 06:33N 37°57' E 023°38'0 0.0
2015-Jul-30 05:33N 37°57' E 023°38'0 0.0
2015-Jul-30 04:33N 37°57' E 023°38'1 1.2
2015-Jul-30 03:34N 37°56' E 023°37'1716.6
2015-Jul-30 02:34N 37°41' E 023°46'2121.0
2015-Jul-30 01:34N 37°21' E 023°54'2121.2
2015-Jul-30 00:33N 37°01' E 024°04'4321.2
2015-Jul-29 22:32N 36°22' E 024°26'2120.8
2015-Jul-29 21:33N 36°04' E 024°39'2121.0
2015-Jul-29 20:33N 35°46' E 024°52'2121.1
2015-Jul-29 19:33N 35°28' E 025°05'8 8.0
2015-Jul-29 18:32N 35°21' E 025°09'0 0.0
2015-Jul-29 17:32N 35°21' E 025°09'0 0.0
2015-Jul-29 16:32N 35°21' E 025°09'0 0.0
2015-Jul-29 15:32N 35°21' E 025°09'0 0.0
2015-Jul-29 14:32N 35°21' E 025°09'0 0.0
2015-Jul-29 13:32N 35°21' E 025°09'0 0.0
2015-Jul-29 12:32N 35°21' E 025°09'0 0.0
2015-Jul-29 11:29N 35°21' E 025°09'0 0.0
2015-Jul-29 10:32N 35°21' E 025°09'0 0.0
2015-Jul-29 09:32N 35°21' E 025°09'0 0.0
2015-Jul-29 08:26N 35°21' E 025°09'0 0.0
2015-Jul-29 07:32N 35°21' E 025°09'0 0.0
2015-Jul-29 06:32N 35°21' E 025°09'0 0.0
2015-Jul-29 05:32N 35°21' E 025°09'0 0.0
2015-Jul-29 04:33N 35°21' E 025°09'1 0.7
2015-Jul-29 03:32N 35°21' E 025°09'1818.6
2015-Jul-29 02:33N 35°37' E 024°58'2120.6
2015-Jul-29 01:33N 35°55' E 024°46'2121.1
2015-Jul-29 00:33N 36°13' E 024°32'2121.2
2015-Jul-28 23:33N 36°31' E 024°19'2121.0
2015-Jul-28 22:33N 36°50' E 024°08'2120.9
2015-Jul-28 21:33N 37°09' E 023°58'2120.9
2015-Jul-28 20:33N 37°29' E 023°48'2121.1
2015-Jul-28 19:33N 37°48' E 023°38'8 8.3
2015-Jul-28 18:33N 37°57' E 023°38'0 0.0
2015-Jul-28 17:33N 37°57' E 023°38'0 0.0
2015-Jul-28 16:30N 37°57' E 023°38'0 0.0
2015-Jul-28 15:33N 37°57' E 023°38'0 0.0
2015-Jul-28 14:33N 37°57' E 023°38'0 0.0
2015-Jul-28 13:33N 37°57' E 023°38'0 0.0
2015-Jul-28 12:33N 37°57' E 023°38'0 0.0
2015-Jul-28 11:33N 37°57' E 023°38'0 0.0
2015-Jul-28 10:33N 37°57' E 023°38'0 0.0
2015-Jul-28 09:33N 37°57' E 023°38'0 0.0
2015-Jul-28 08:33N 37°57' E 023°38'0 0.0
2015-Jul-28 07:33N 37°57' E 023°38'0 0.0
2015-Jul-28 06:33N 37°57' E 023°38'0 0.0
2015-Jul-28 05:30N 37°57' E 023°38'0 0.0
2015-Jul-28 04:33N 37°57' E 023°38'0 0.1
2015-Jul-28 03:33N 37°56' E 023°38'1717.1
2015-Jul-28 02:33N 37°40' E 023°45'2121.2
2015-Jul-28 01:33N 37°20' E 023°54'2121.4
2015-Jul-28 00:33N 37°01' E 024°04'2221.2
2015-Jul-27 23:31N 36°40' E 024°15'2121.2
2015-Jul-27 22:33N 36°22' E 024°27'2120.7
2015-Jul-27 21:33N 36°04' E 024°39'2120.7
2015-Jul-27 20:33N 35°46' E 024°52'2120.8
2015-Jul-27 19:33N 35°28' E 025°05'8 8.0
2015-Jul-27 18:33N 35°21' E 025°09'0 0.0
2015-Jul-27 17:33N 35°21' E 025°09'0 0.0
2015-Jul-27 16:33N 35°21' E 025°09'0 0.0
2015-Jul-27 15:33N 35°21' E 025°09'0 0.0
2015-Jul-27 14:33N 35°21' E 025°09'0 0.0
2015-Jul-27 13:33N 35°21' E 025°09'0 0.0
2015-Jul-27 12:33N 35°21' E 025°09'0 0.0
2015-Jul-27 11:33N 35°21' E 025°09'0 0.0
2015-Jul-27 10:30N 35°21' E 025°09'0 0.0
2015-Jul-27 09:33N 35°21' E 025°09'0 0.0
2015-Jul-27 08:33N 35°21' E 025°09'0 0.0
2015-Jul-27 07:33N 35°21' E 025°09'0 0.0
2015-Jul-27 06:33N 35°21' E 025°09'0 0.0
2015-Jul-27 05:33N 35°21' E 025°09'3 1.2
2015-Jul-27 03:22N 35°23' E 025°09'1821.1
2015-Jul-27 02:32N 35°38' E 024°58'2120.7
2015-Jul-27 01:32N 35°56' E 024°45'2120.7
2015-Jul-27 00:33N 36°14' E 024°32'2120.8
2015-Jul-26 23:33N 36°32' E 024°19'2720.8
2015-Jul-26 22:13N 36°57' E 024°04'1421.2
2015-Jul-26 21:33N 37°10' E 023°57'2120.8
2015-Jul-26 20:33N 37°29' E 023°48'2121.1
2015-Jul-26 19:33N 37°49' E 023°38'8 8.1
2015-Jul-26 18:33N 37°57' E 023°38'0 0.0
2015-Jul-26 17:31N 37°57' E 023°38'0 0.0
2015-Jul-26 16:31N 37°57' E 023°38'0 0.0
2015-Jul-26 15:31N 37°57' E 023°38'0 0.0
2015-Jul-26 14:31N 37°57' E 023°38'0 0.0
2015-Jul-26 13:31N 37°57' E 023°38'0 0.0
2015-Jul-26 12:31N 37°57' E 023°38'0 0.0
2015-Jul-26 11:31N 37°57' E 023°38'0 0.0
2015-Jul-26 10:31N 37°57' E 023°38'0 0.0
2015-Jul-26 09:31N 37°57' E 023°38'0 0.0
2015-Jul-26 08:31N 37°57' E 023°38'0 0.0
2015-Jul-26 07:31N 37°57' E 023°38'0 0.0
2015-Jul-26 06:31N 37°57' E 023°38'0 0.0
2015-Jul-26 05:31N 37°57' E 023°38'0 0.0
2015-Jul-26 04:31N 37°57' E 023°38'1 0.8
2015-Jul-26 03:33N 37°56' E 023°37'1717.1
2015-Jul-26 02:33N 37°41' E 023°46'2121.4
2015-Jul-26 01:33N 37°20' E 023°54'2121.0
2015-Jul-26 00:33N 37°01' E 024°03'2121.1
2015-Jul-25 23:33N 36°41' E 024°14'2121.1
2015-Jul-25 22:33N 36°23' E 024°26'2121.0
2015-Jul-25 21:33N 36°04' E 024°39'2120.8
2015-Jul-25 20:33N 35°46' E 024°52'2121.1
2015-Jul-25 19:33N 35°28' E 025°05'8 8.0
2015-Jul-25 18:33N 35°21' E 025°09'0 0.0
2015-Jul-25 17:32N 35°21' E 025°09'0 0.0
2015-Jul-25 16:32N 35°21' E 025°09'0 0.0
2015-Jul-25 15:32N 35°21' E 025°09'1717.2
2015-Jul-25 14:33N 35°36' E 024°59'2524.6
2015-Jul-25 13:33N 35°57' E 024°44'2524.9
2015-Jul-25 12:33N 36°18' E 024°28'7324.5
2015-Jul-25 09:33N 37°25' E 023°50'2424.5
2015-Jul-25 08:34N 37°48' E 023°38'9 9.1
2015-Jul-25 07:33N 37°57' E 023°38'0 0.0
2015-Jul-25 06:33N 37°57' E 023°38'0 0.0
2015-Jul-25 05:33N 37°57' E 023°38'0 0.0
2015-Jul-25 04:33N 37°57' E 023°38'0 0.1
2015-Jul-25 03:33N 37°57' E 023°38'1616.4
2015-Jul-25 02:33N 37°41' E 023°45'6521.5
2015-Jul-24 23:33N 36°41' E 024°14'2121.1
2015-Jul-24 22:33N 36°22' E 024°26'2121.1
2015-Jul-24 21:33N 36°04' E 024°39'2120.9
2015-Jul-24 20:33N 35°46' E 024°53'2120.9
2015-Jul-24 19:33N 35°28' E 025°05'8 7.6
2015-Jul-24 18:33N 35°21' E 025°09'0 0.0
2015-Jul-24 15:29N 35°21' E 025°09'0 0.0
2015-Jul-24 14:32N 35°21' E 025°09'0 0.0
2015-Jul-24 13:32N 35°21' E 025°09'0 0.0
2015-Jul-24 12:32N 35°21' E 025°09'0 0.0
2015-Jul-24 11:29N 35°21' E 025°09'0 0.0
2015-Jul-24 10:29N 35°21' E 025°09'0 0.0
2015-Jul-24 09:32N 35°21' E 025°09'0 0.0
2015-Jul-24 08:32N 35°21' E 025°09'0 0.0
2015-Jul-24 06:23N 35°21' E 025°09'0 0.0
2015-Jul-24 05:29N 35°21' E 025°09'0 0.0
2015-Jul-24 04:32N 35°21' E 025°09'1 1.2
2015-Jul-24 03:33N 35°21' E 025°10'2020.3
2015-Jul-24 02:33N 35°39' E 024°57'2020.2
2015-Jul-24 01:32N 35°57' E 024°44'2120.7
2015-Jul-24 00:33N 36°14' E 024°31'8420.9
2015-Jul-23 20:33N 37°30' E 023°47'2020.3
2015-Jul-23 19:34N 37°49' E 023°38'8 7.6
2015-Jul-23 18:32N 37°57' E 023°38'0 0.0
2015-Jul-23 17:32N 37°57' E 023°38'0 0.0
2015-Jul-23 16:32N 37°57' E 023°38'0 0.0
2015-Jul-23 15:29N 37°57' E 023°38'0 0.0
2015-Jul-23 14:32N 37°57' E 023°38'0 0.0
2015-Jul-23 13:29N 37°57' E 023°38'0 0.0
2015-Jul-23 12:32N 37°57' E 023°38'0 0.0
2015-Jul-23 11:29N 37°57' E 023°38'0 0.0
2015-Jul-23 10:29N 37°57' E 023°38'0 0.0
2015-Jul-23 09:32N 37°57' E 023°38'0 0.0
2015-Jul-23 08:32N 37°57' E 023°38'0 0.0
2015-Jul-23 07:32N 37°57' E 023°38'0 0.0
2015-Jul-23 06:33N 37°57' E 023°38'0 0.0
2015-Jul-23 05:31N 37°57' E 023°38'0 0.0
2015-Jul-23 04:33N 37°57' E 023°38'2 1.6
2015-Jul-23 03:33N 37°55' E 023°37'2019.8
2015-Jul-23 02:33N 37°37' E 023°48'  
Track history (hours):
 
Tides and Currents Weather Stations Pressure Air Temp Water Temp Dewpoint Dewpoint Depression Visibility Wind Speed Wind Dir Waves Ship Positions

Knossos Palace

Last reported at 2015-Aug-02 02:31 UTC. Time now 2015-Aug-02 06:24 UTC.
Position N 35°36' E 024°59'.

Length 214 m; beam 26.4 m; draft 7.3 m.

Type: Ship. MMSI: 237641000.

Date/timePositionNaut miles runAvg speedWind from/ knotsBaromVisibWave heightAir tempDewpointWater temp
2015-Aug-02 02:31N 35°36' E 024°59'2021.4
2015-Aug-02 01:33N 35°54' E 024°46'2221.6
2015-Aug-02 00:33N 36°13' E 024°33'8921.1
2015-Aug-01 20:21N 37°33' E 023°46'1621.0
2015-Aug-01 19:34N 37°48' E 023°38'8 8.1
2015-Aug-01 18:33N 37°57' E 023°38'0 0.0
2015-Aug-01 17:33N 37°57' E 023°38'0 0.0
2015-Aug-01 16:33N 37°57' E 023°38'0 0.2
2015-Aug-01 15:33N 37°56' E 023°38'1817.6
2015-Aug-01 14:34N 37°40' E 023°46'8124.3
2015-Aug-01 11:14N 36°25' E 024°24'1724.5
2015-Aug-01 10:33N 36°10' E 024°34'2424.3
2015-Aug-01 09:33N 35°50' E 024°49'2424.1
2015-Aug-01 08:33N 35°29' E 025°05'9 2.1
2015-Aug-01 04:21N 35°21' E 025°09'0 0.1
2015-Aug-01 03:33N 35°21' E 025°09'1717.6
2015-Aug-01 02:33N 35°36' E 024°59'2121.1
2015-Aug-01 01:33N 35°55' E 024°46'2221.4
2015-Aug-01 00:33N 36°13' E 024°32'6521.1
2015-Jul-31 21:27N 37°12' E 023°56'2220.9
2015-Jul-31 20:24N 37°32' E 023°46'1821.1
2015-Jul-31 19:34N 37°48' E 023°37'8 8.4
2015-Jul-31 18:34N 37°57' E 023°38'0 0.0
2015-Jul-31 17:34N 37°57' E 023°38'0 0.0
2015-Jul-31 16:34N 37°57' E 023°38'0 0.1
2015-Jul-31 15:33N 37°57' E 023°38'1818.4
2015-Jul-31 14:33N 37°39' E 023°46'2524.6
2015-Jul-31 13:34N 37°16' E 023°57'2424.5
2015-Jul-31 12:34N 36°53' E 024°08'2924.2
2015-Jul-31 11:21N 36°27' E 024°23'1924.1
2015-Jul-31 10:33N 36°10' E 024°34'2823.8
2015-Jul-31 09:23N 35°46' E 024°52'2024.1
2015-Jul-31 08:33N 35°29' E 025°04'9 8.9
2015-Jul-31 07:33N 35°21' E 025°09'0 0.0
2015-Jul-31 06:32N 35°21' E 025°09'0 0.0
2015-Jul-31 05:32N 35°21' E 025°09'0 0.0
2015-Jul-31 04:29N 35°21' E 025°09'0 0.2
2015-Jul-31 03:32N 35°21' E 025°09'1717.6
2015-Jul-31 02:33N 35°36' E 024°59'2221.4
2015-Jul-31 01:33N 35°55' E 024°46'2121.3
2015-Jul-31 00:33N 36°13' E 024°33'2121.0
2015-Jul-30 23:33N 36°31' E 024°19'4221.1
2015-Jul-30 21:33N 37°09' E 023°57'2120.8
2015-Jul-30 20:33N 37°29' E 023°48'2120.9
2015-Jul-30 19:34N 37°48' E 023°38'8 8.5
2015-Jul-30 18:33N 37°57' E 023°38'0 0.0
2015-Jul-30 17:33N 37°57' E 023°38'0 0.0
2015-Jul-30 16:33N 37°57' E 023°38'0 0.0
2015-Jul-30 15:33N 37°57' E 023°38'0 0.0
2015-Jul-30 14:33N 37°57' E 023°38'0 0.0
2015-Jul-30 13:33N 37°57' E 023°38'0 0.0
2015-Jul-30 12:33N 37°57' E 023°38'0 0.0
2015-Jul-30 11:33N 37°57' E 023°38'0 0.0
2015-Jul-30 10:33N 37°57' E 023°38'0 0.0
2015-Jul-30 09:33N 37°57' E 023°38'0 0.0
2015-Jul-30 08:30N 37°57' E 023°38'0 0.0
2015-Jul-30 07:33N 37°57' E 023°38'0 0.0
2015-Jul-30 06:33N 37°57' E 023°38'0 0.0
2015-Jul-30 05:33N 37°57' E 023°38'0 0.0
2015-Jul-30 04:33N 37°57' E 023°38'1 1.2
2015-Jul-30 03:34N 37°56' E 023°37'1716.6
2015-Jul-30 02:34N 37°41' E 023°46'2121.0
2015-Jul-30 01:34N 37°21' E 023°54'2121.2
2015-Jul-30 00:33N 37°01' E 024°04'4321.2
2015-Jul-29 22:32N 36°22' E 024°26'2120.8
2015-Jul-29 21:33N 36°04' E 024°39'2121.0
2015-Jul-29 20:33N 35°46' E 024°52'2121.1
2015-Jul-29 19:33N 35°28' E 025°05'8 8.0
2015-Jul-29 18:32N 35°21' E 025°09'0 0.0
2015-Jul-29 17:32N 35°21' E 025°09'0 0.0
2015-Jul-29 16:32N 35°21' E 025°09'0 0.0
2015-Jul-29 15:32N 35°21' E 025°09'0 0.0
2015-Jul-29 14:32N 35°21' E 025°09'0 0.0
2015-Jul-29 13:32N 35°21' E 025°09'0 0.0
2015-Jul-29 12:32N 35°21' E 025°09'0 0.0
2015-Jul-29 11:29N 35°21' E 025°09'0 0.0
2015-Jul-29 10:32N 35°21' E 025°09'0 0.0
2015-Jul-29 09:32N 35°21' E 025°09'0 0.0
2015-Jul-29 08:26N 35°21' E 025°09'0 0.0
2015-Jul-29 07:32N 35°21' E 025°09'0 0.0
2015-Jul-29 06:32N 35°21' E 025°09'0 0.0
2015-Jul-29 05:32N 35°21' E 025°09'0 0.0
2015-Jul-29 04:33N 35°21' E 025°09'1 0.7
2015-Jul-29 03:32N 35°21' E 025°09'1818.6
2015-Jul-29 02:33N 35°37' E 024°58'2120.6
2015-Jul-29 01:33N 35°55' E 024°46'2121.1
2015-Jul-29 00:33N 36°13' E 024°32'2121.2
2015-Jul-28 23:33N 36°31' E 024°19'2121.0
2015-Jul-28 22:33N 36°50' E 024°08'2120.9
2015-Jul-28 21:33N 37°09' E 023°58'2120.9
2015-Jul-28 20:33N 37°29' E 023°48'2121.1
2015-Jul-28 19:33N 37°48' E 023°38'8 8.3
2015-Jul-28 18:33N 37°57' E 023°38'0 0.0
2015-Jul-28 17:33N 37°57' E 023°38'0 0.0
2015-Jul-28 16:30N 37°57' E 023°38'0 0.0
2015-Jul-28 15:33N 37°57' E 023°38'0 0.0
2015-Jul-28 14:33N 37°57' E 023°38'0 0.0
2015-Jul-28 13:33N 37°57' E 023°38'0 0.0
2015-Jul-28 12:33N 37°57' E 023°38'0 0.0
2015-Jul-28 11:33N 37°57' E 023°38'0 0.0
2015-Jul-28 10:33N 37°57' E 023°38'0 0.0
2015-Jul-28 09:33N 37°57' E 023°38'0 0.0
2015-Jul-28 08:33N 37°57' E 023°38'0 0.0
2015-Jul-28 07:33N 37°57' E 023°38'0 0.0
2015-Jul-28 06:33N 37°57' E 023°38'0 0.0
2015-Jul-28 05:30N 37°57' E 023°38'0 0.0
2015-Jul-28 04:33N 37°57' E 023°38'0 0.1
2015-Jul-28 03:33N 37°56' E 023°38'1717.1
2015-Jul-28 02:33N 37°40' E 023°45'2121.2
2015-Jul-28 01:33N 37°20' E 023°54'2121.4
2015-Jul-28 00:33N 37°01' E 024°04'2221.2
2015-Jul-27 23:31N 36°40' E 024°15'2121.2
2015-Jul-27 22:33N 36°22' E 024°27'2120.7
2015-Jul-27 21:33N 36°04' E 024°39'2120.7
2015-Jul-27 20:33N 35°46' E 024°52'2120.8
2015-Jul-27 19:33N 35°28' E 025°05'8 8.0
2015-Jul-27 18:33N 35°21' E 025°09'0 0.0
2015-Jul-27 17:33N 35°21' E 025°09'0 0.0
2015-Jul-27 16:33N 35°21' E 025°09'0 0.0
2015-Jul-27 15:33N 35°21' E 025°09'0 0.0
2015-Jul-27 14:33N 35°21' E 025°09'0 0.0
2015-Jul-27 13:33N 35°21' E 025°09'0 0.0
2015-Jul-27 12:33N 35°21' E 025°09'0 0.0
2015-Jul-27 11:33N 35°21' E 025°09'0 0.0
2015-Jul-27 10:30N 35°21' E 025°09'0 0.0
2015-Jul-27 09:33N 35°21' E 025°09'0 0.0
2015-Jul-27 08:33N 35°21' E 025°09'0 0.0
2015-Jul-27 07:33N 35°21' E 025°09'0 0.0
2015-Jul-27 06:33N 35°21' E 025°09'0 0.0
2015-Jul-27 05:33N 35°21' E 025°09'3 1.2
2015-Jul-27 03:22N 35°23' E 025°09'1821.1
2015-Jul-27 02:32N 35°38' E 024°58'2120.7
2015-Jul-27 01:32N 35°56' E 024°45'2120.7
2015-Jul-27 00:33N 36°14' E 024°32'2120.8
2015-Jul-26 23:33N 36°32' E 024°19'2720.8
2015-Jul-26 22:13N 36°57' E 024°04'1421.2
2015-Jul-26 21:33N 37°10' E 023°57'2120.8
2015-Jul-26 20:33N 37°29' E 023°48'2121.1
2015-Jul-26 19:33N 37°49' E 023°38'8 8.1
2015-Jul-26 18:33N 37°57' E 023°38'0 0.0
2015-Jul-26 17:31N 37°57' E 023°38'0 0.0
2015-Jul-26 16:31N 37°57' E 023°38'0 0.0
2015-Jul-26 15:31N 37°57' E 023°38'0 0.0
2015-Jul-26 14:31N 37°57' E 023°38'0 0.0
2015-Jul-26 13:31N 37°57' E 023°38'0 0.0
2015-Jul-26 12:31N 37°57' E 023°38'0 0.0
2015-Jul-26 11:31N 37°57' E 023°38'0 0.0
2015-Jul-26 10:31N 37°57' E 023°38'0 0.0
2015-Jul-26 09:31N 37°57' E 023°38'0 0.0
2015-Jul-26 08:31N 37°57' E 023°38'0 0.0
2015-Jul-26 07:31N 37°57' E 023°38'0 0.0
2015-Jul-26 06:31N 37°57' E 023°38'0 0.0
2015-Jul-26 05:31N 37°57' E 023°38'0 0.0
2015-Jul-26 04:31N 37°57' E 023°38'1 0.8
2015-Jul-26 03:33N 37°56' E 023°37'1717.1
2015-Jul-26 02:33N 37°41' E 023°46'2121.4
2015-Jul-26 01:33N 37°20' E 023°54'2121.0
2015-Jul-26 00:33N 37°01' E 024°03'2121.1
2015-Jul-25 23:33N 36°41' E 024°14'2121.1
2015-Jul-25 22:33N 36°23' E 024°26'2121.0
2015-Jul-25 21:33N 36°04' E 024°39'2120.8
2015-Jul-25 20:33N 35°46' E 024°52'2121.1
2015-Jul-25 19:33N 35°28' E 025°05'8 8.0
2015-Jul-25 18:33N 35°21' E 025°09'0 0.0
2015-Jul-25 17:32N 35°21' E 025°09'0 0.0
2015-Jul-25 16:32N 35°21' E 025°09'0 0.0
2015-Jul-25 15:32N 35°21' E 025°09'1717.2
2015-Jul-25 14:33N 35°36' E 024°59'2524.6
2015-Jul-25 13:33N 35°57' E 024°44'2524.9
2015-Jul-25 12:33N 36°18' E 024°28'7324.5
2015-Jul-25 09:33N 37°25' E 023°50'2424.5
2015-Jul-25 08:34N 37°48' E 023°38'9 9.1
2015-Jul-25 07:33N 37°57' E 023°38'0 0.0
2015-Jul-25 06:33N 37°57' E 023°38'0 0.0
2015-Jul-25 05:33N 37°57' E 023°38'0 0.0
2015-Jul-25 04:33N 37°57' E 023°38'0 0.1
2015-Jul-25 03:33N 37°57' E 023°38'1616.4
2015-Jul-25 02:33N 37°41' E 023°45'6521.5
2015-Jul-24 23:33N 36°41' E 024°14'2121.1
2015-Jul-24 22:33N 36°22' E 024°26'2121.1
2015-Jul-24 21:33N 36°04' E 024°39'2120.9
2015-Jul-24 20:33N 35°46' E 024°53'2120.9
2015-Jul-24 19:33N 35°28' E 025°05'8 7.6
2015-Jul-24 18:33N 35°21' E 025°09'0 0.0
2015-Jul-24 15:29N 35°21' E 025°09'0 0.0
2015-Jul-24 14:32N 35°21' E 025°09'0 0.0
2015-Jul-24 13:32N 35°21' E 025°09'0 0.0
2015-Jul-24 12:32N 35°21' E 025°09'0 0.0
2015-Jul-24 11:29N 35°21' E 025°09'0 0.0
2015-Jul-24 10:29N 35°21' E 025°09'0 0.0
2015-Jul-24 09:32N 35°21' E 025°09'0 0.0
2015-Jul-24 08:32N 35°21' E 025°09'0 0.0
2015-Jul-24 06:23N 35°21' E 025°09'0 0.0
2015-Jul-24 05:29N 35°21' E 025°09'0 0.0
2015-Jul-24 04:32N 35°21' E 025°09'1 1.2
2015-Jul-24 03:33N 35°21' E 025°10'2020.3
2015-Jul-24 02:33N 35°39' E 024°57'2020.2
2015-Jul-24 01:32N 35°57' E 024°44'2120.7
2015-Jul-24 00:33N 36°14' E 024°31'8420.9
2015-Jul-23 20:33N 37°30' E 023°47'2020.3
2015-Jul-23 19:34N 37°49' E 023°38'8 7.6
2015-Jul-23 18:32N 37°57' E 023°38'0 0.0
2015-Jul-23 17:32N 37°57' E 023°38'0 0.0
2015-Jul-23 16:32N 37°57' E 023°38'0 0.0
2015-Jul-23 15:29N 37°57' E 023°38'0 0.0
2015-Jul-23 14:32N 37°57' E 023°38'0 0.0
2015-Jul-23 13:29N 37°57' E 023°38'0 0.0
2015-Jul-23 12:32N 37°57' E 023°38'0 0.0
2015-Jul-23 11:29N 37°57' E 023°38'0 0.0
2015-Jul-23 10:29N 37°57' E 023°38'0 0.0
2015-Jul-23 09:32N 37°57' E 023°38'0 0.0
2015-Jul-23 08:32N 37°57' E 023°38'0 0.0
2015-Jul-23 07:32N 37°57' E 023°38'0 0.0
2015-Jul-23 06:33N 37°57' E 023°38'0 0.0
2015-Jul-23 05:31N 37°57' E 023°38'0 0.0
2015-Jul-23 04:33N 37°57' E 023°38'2 1.6
2015-Jul-23 03:33N 37°55' E 023°37'2019.8
2015-Jul-23 02:33N 37°37' E 023°48'  

Dump ship's entire track history